createdAt,value
2014-09-28T00:04:26.212Z,102643
2014-09-28T00:13:26.853Z,102629
2014-09-28T00:21:27.430Z,102629
2014-09-28T00:29:28.026Z,102614
2014-09-28T00:35:28.505Z,102614
2014-09-28T00:44:29.147Z,102605
2014-09-28T00:52:29.726Z,102591
2014-09-28T01:01:30.367Z,102605
2014-09-28T01:09:30.945Z,102594
2014-09-28T01:17:31.539Z,102588
2014-09-28T01:25:32.116Z,102582
2014-09-28T01:33:32.710Z,102570
2014-09-28T01:41:33.289Z,102567
2014-09-28T01:48:33.832Z,102564
2014-09-28T01:57:34.459Z,102576
2014-09-28T02:07:35.151Z,102567
2014-09-28T02:15:35.729Z,102555
2014-09-28T02:23:36.338Z,102558
2014-09-28T02:31:36.915Z,102546
2014-09-28T02:40:37.557Z,102543
2014-09-28T02:49:38.185Z,102540
2014-09-28T02:56:38.729Z,102526
2014-09-28T03:04:39.307Z,102534
2014-09-28T03:11:39.852Z,102526
2014-09-28T03:19:40.429Z,102520
2014-09-28T03:25:40.925Z,102523
2014-09-28T03:32:41.455Z,102518
2014-09-28T03:39:41.999Z,102525
2014-09-28T03:48:42.750Z,102522
2014-09-28T03:56:43.479Z,102525
2014-09-28T04:03:44.046Z,102522
2014-09-28T04:11:44.633Z,102525
2014-09-28T04:18:45.178Z,102512
2014-09-28T04:25:45.709Z,102517
2014-09-28T04:33:46.285Z,102522
2014-09-28T04:42:46.928Z,102528
2014-09-28T04:52:47.618Z,102517
2014-09-28T05:00:48.198Z,102522
2014-09-28T05:06:48.676Z,102506
2014-09-28T05:15:49.319Z,102514
2014-09-28T05:21:49.806Z,102514
2014-09-28T05:30:50.430Z,102517
2014-09-28T05:37:50.977Z,102522
2014-09-28T05:45:51.548Z,102511
2014-09-28T05:54:52.191Z,102502
2014-09-28T06:01:52.722Z,102502
2014-09-28T06:09:53.297Z,102502
2014-09-28T06:18:53.940Z,102511
2014-09-28T06:27:54.568Z,102508
2014-09-28T06:38:05.789Z,102509
2014-09-28T06:45:06.318Z,102503
2014-09-28T06:54:06.976Z,102500
2014-09-28T07:03:07.588Z,102503
2014-09-28T07:11:08.180Z,102500
2014-09-28T07:18:08.711Z,102509
2014-09-28T07:26:09.287Z,102506
2014-09-28T07:34:09.881Z,102514
2014-09-28T07:43:10.509Z,102514
2014-09-28T07:51:11.087Z,102515
2014-09-28T08:00:11.728Z,102503
2014-09-28T08:08:12.306Z,102503
2014-09-28T08:15:12.836Z,102494
2014-09-28T08:23:13.428Z,102488
2014-09-28T08:48:45.025Z,102488
2014-09-28T08:58:45.716Z,102496
2014-09-28T09:07:46.343Z,102502
2014-09-28T09:14:46.888Z,102508
2014-09-28T09:23:47.530Z,102511
2014-09-28T09:31:48.124Z,102520
2014-09-28T09:39:48.701Z,102502
2014-09-28T09:49:49.393Z,102497
2014-09-28T09:59:50.083Z,102485
2014-09-28T10:08:50.709Z,102482
2014-09-28T10:16:51.305Z,102488
2014-09-28T10:23:51.832Z,102476
2014-09-28T10:32:52.474Z,102464
2014-09-28T10:40:53.084Z,102456
2014-09-28T10:48:53.646Z,102445
2014-09-28T10:58:54.337Z,102451
2014-09-28T11:07:54.980Z,102436
2014-09-28T11:16:55.622Z,102431
2014-09-28T11:24:56.200Z,102418
2014-09-28T11:33:56.873Z,102415
2014-09-28T11:42:57.500Z,102407
2014-09-28T11:50:58.110Z,102398
2014-09-28T12:00:58.800Z,102395
2014-09-28T12:07:59.314Z,102392
2014-09-28T12:16:59.956Z,102367
2014-09-28T12:27:00.647Z,102386
2014-09-28T12:34:01.193Z,102355
2014-09-28T12:43:01.818Z,102358
2014-09-28T12:52:02.460Z,102352
2014-09-28T13:01:03.392Z,102361
2014-09-28T13:10:04.057Z,102358
2014-09-28T13:18:04.641Z,102373
2014-09-28T13:26:05.238Z,102341
2014-09-28T13:33:05.782Z,102353
2014-09-28T13:42:06.425Z,102325
2014-09-28T13:50:07.034Z,102331
2014-09-28T13:57:07.549Z,102298
2014-09-28T14:03:08.043Z,102281
2014-09-28T14:11:08.637Z,102287
2014-09-28T14:20:09.279Z,102305
2014-09-28T14:27:09.809Z,102291
2014-09-28T14:33:10.304Z,102276
2014-09-28T14:41:10.897Z,102279
2014-09-28T14:49:11.490Z,102276
2014-09-28T14:57:12.083Z,102256
2014-09-28T15:07:12.775Z,102250
2014-09-28T15:14:13.321Z,102244
2014-09-28T15:23:13.962Z,102244
2014-09-28T15:32:14.606Z,102247
2014-09-28T15:40:15.214Z,102238
2014-09-28T15:48:15.791Z,102241
2014-09-28T15:56:16.385Z,102232
2014-09-28T16:06:17.075Z,102226
2014-09-28T16:13:17.605Z,102238
2014-09-28T16:21:18.200Z,102226
2014-09-28T16:26:18.646Z,102211
2014-09-28T16:35:19.287Z,102202
2014-09-28T16:43:19.866Z,102177
2014-09-28T16:52:20.509Z,102177
2014-09-28T17:01:21.181Z,102147
2014-09-28T17:10:21.794Z,102165
2014-09-28T17:19:22.450Z,102176
2014-09-28T17:25:22.932Z,102173
2014-09-28T17:34:23.746Z,102179
2014-09-28T17:41:24.289Z,102176
2014-09-28T17:51:24.966Z,102210
2014-09-28T17:59:25.559Z,102222
2014-09-28T18:06:26.105Z,102228
2014-09-28T18:15:26.730Z,102219
2014-09-28T18:23:27.324Z,102231
2014-09-28T18:31:27.917Z,102225
2014-09-28T18:38:28.448Z,102225
2014-09-28T18:47:29.089Z,102225
2014-09-28T18:56:29.715Z,102222
2014-09-28T19:05:30.357Z,102213
2014-09-28T19:13:30.936Z,102213
2014-09-28T19:19:31.430Z,102202
2014-09-28T19:28:32.075Z,102205
2014-09-28T19:38:32.749Z,102219
2014-09-28T19:47:33.390Z,102222
2014-09-28T19:54:33.921Z,102213
2014-09-28T20:03:34.579Z,102208
2014-09-28T20:12:35.206Z,102199
2014-09-28T20:18:35.686Z,102191
2014-09-28T20:27:36.329Z,102193
2014-09-28T20:34:36.857Z,102188
2014-09-28T20:42:37.450Z,102196
2014-09-28T20:51:38.077Z,102199
2014-09-28T20:59:38.670Z,102191
2014-09-28T21:06:39.201Z,102191
2014-09-28T21:14:39.793Z,102191
2014-09-28T21:23:40.421Z,102193
2014-09-28T21:30:40.965Z,102188
2014-09-28T21:37:41.493Z,102185
2014-09-28T21:43:41.989Z,102170
2014-09-28T21:51:42.566Z,102173
2014-09-28T21:59:43.243Z,102179
2014-09-28T22:06:43.947Z,102179
2014-09-28T22:14:44.595Z,102167
2014-09-28T22:24:45.312Z,102173
2014-09-28T22:33:45.939Z,102171
2014-09-28T22:41:46.533Z,102174
2014-09-28T22:48:47.062Z,102182
2014-09-28T22:55:47.608Z,102174
2014-09-28T23:05:48.282Z,102168
2014-09-28T23:12:48.827Z,102162
2014-09-28T23:33:50.258Z,102159
2014-09-28T23:42:50.883Z,102156
2014-09-28T23:50:51.479Z,102162
2014-09-28T23:57:52.007Z,102153
